ONPNEWPORT MUNI
METARs for airports near ONP, sorted by distance:
N 0 nm 160' KONP 230015Z 08014G20KT 10SM CLR 12/03 A3032
E 33 nm 249' KCVO 222356Z 02006KT 10SM CLR 07/03 A3040
SE 45 nm 373' KEUG 222354Z 36011KT 10SM OVC010 06/03 A3039
NE 49 nm 213' KSLE 222356Z 33008KT 10SM CLR 09/04 A3040
N 51 nm 39' KTMK 222350Z 29003KT 10SM CLR 11/07 A3036
NE 53 nm 162' KMMV 222353Z 35004KT 10SM CLR 10/04 A3041
NE 67 nm 199' KUAO 222353Z 03008KT 10SM CLR 10/03 A3041
S 70 nm 17' KOTH 222356Z 06005KT 10SM CLR 17/07 A3027
NE 74 nm 207' KHIO 222353Z 30003KT 10SM CLR 09/04 A3041
S 86 nm 533' KRBG 222353Z 36004KT 10SM CLR 10/04 A3033
NE 86 nm 28' KVUO 222353Z 29007KT 10SM CLR 09/03 A3043
NE 86 nm 30' KPDX 222353Z 29007KT 10SM FEW100 FEW250 09/03 A3043
NE 87 nm 58' KSPB 222353Z 00000KT 10SM CLR 09/03 A3043
NE 91 nm 38' KTTD 222153Z 27008KT 10SM CLR 08/03 A3044
N 95 nm 14' KAST 222355Z 06008KT 10SM CLR 09/04 A3037
TAFs for airports near ONP, sorted by distance:
N 0 nm 160' KONP TAF KONP 222331Z 2300/2324 03006KT P6SM SKC
  FM230200 11011G20KT P6SM SKC
SE 45 nm 373' KEUG TAF KEUG 222331Z 2300/2324 01008KT P6SM OVC012
  FM230200 02008KT P6SM SCT015
  FM230800 35004KT 3SM BR SCT004 BKN010
  FM231200 00000KT 1/2SM FG OVC002
  FM232200 VRB02KT P6SM SCT002
NE 49 nm 213' KSLE TAF KSLE 222331Z 2300/2324 36007KT P6SM SKC
  FM231100 35004KT 6SM BR MIFG BKN015
  TEMPO 2314/2318 1SM BR OVC002
  FM232000 VRB02KT P6SM SCT002
NE 67 nm 199' KUAO KUAO 222331Z 2300/2324 02005KT P6SM SKC
  FM230900 36002KT 5SM BR MIFG FEW007 BKN015
  FM231400 00000KT 1/2SM FG OVC002
  FM232000 00000KT P6SM FEW002
S 70 nm 17' KOTH KOTH 222337Z 2300/2324 10004KT P6SM SKC
NE 74 nm 207' KHIO TAF KHIO 222331Z 2300/2324 02004KT P6SM SKC
  FM230700 35002KT 1SM BR SCT002 BKN009
  FM231100 00000KT 1/2SM FG OVC002
  FM231800 VRB02KT 6SM BR FEW002
S 86 nm 533' KRBG TAF KRBG 222337Z 2300/2324 00000KT P6SM SKC
  FM230700 00000KT 3SM BR BKN002
  FM230900 00000KT 1/4SM FG OVC002
  FM231800 00000KT 5SM BR SCT004
  FM231900 00000KT P6SM SKC
NE 86 nm 30' KPDX TAF KPDX 222331Z 2300/2324 32005KT P6SM SKC
  FM231400 00000KT 6SM BR FEW003
  FM232100 VRB03KT P6SM FEW250
NE 91 nm 38' KTTD TAF KTTD 222331Z 2300/2324 27007KT P6SM SKC
  FM230100 08006KT P6SM SKC
  FM230500 10012G20KT P6SM SKC
  FM231200 10022G31KT P6SM SKC
  FM231800 10010KT P6SM FEW250
  AMD NOT SKED
N 95 nm 14' KAST TAF KAST 222331Z 2300/2324 06008KT P6SM SKC

Shortcut to this page: http://wxbay.com.

Data may contain errors.